الصفحة الرئيسية
METAR-TAF:

METAR-TAF

مطار :

Asahikawa قاعدة جوية, اليابان

دائرة عرض: 43-48N, خط طول: 142-22E, ارتفاع: 115 متر

مراقبة الطقس الحالي

تاريخ ووقت الإصدار 10ساعات و 41 دقيقة قبل الساعة 03:25UTC
ريح 1 عقدةمن اتجاهات متغيرة
درجة الحرارة 15°درجة مئوية
الرطوبة 100%
ضغط 1002 hPa
الرؤية: 6000 متر
غيوم قليلة على ارتفاع 300 قدم
غيوم مفككة على ارتفاع 500 قدم
غيوم مفككة على ارتفاع 3000 قدم
زخات من الأمطار الخفيفة

METAR: RJCA 240325Z VRB01KT 6000 -SHRA FEW003 BKN005 BKN030 15/15 Q1002 RMK 1ST003 6ST005 7CU030 A2959

زمن: 23:06 (14:06 UTC)


TAF: مفقودة

أرصاد الطقس والتوقعات من أكثر من 4000 مطار (تقارير الطقس للمطار METAR والتنبؤ بالطقس بالمطارTAF).

المحطات المتاحة هي النقط الصفراء والحمراء على الخريطة.

حرك المؤشر فوق النقطة لمعرفة اسم المحطة.

ثم انقر لمعرفة أرصاد وتوقعات الطقس.

لتغيير الخارطة: اضغط على الأزرار الخضراء مع رمز الصليب الأسود للتكبير. على الزر الأخضر مع شرطة للتصغير، أو على الأسهم الخضراء للخرائط المجاورة.


METAR-TAF: